sensor_id;sensor_type;location;lat;lon;timestamp;P1;durP1;ratioP1;P2;durP2;ratioP2
26864;SDS011;40618;51.166;10.322;2023-05-02T00:00:42;24.65;;;12.20;;
26864;SDS011;40618;51.166;10.322;2023-05-02T00:03:09;8.40;;;5.18;;
26864;SDS011;40618;51.166;10.322;2023-05-02T00:05:35;4.15;;;2.92;;
26864;SDS011;40618;51.166;10.322;2023-05-02T00:08:01;3.22;;;2.10;;
26864;SDS011;40618;51.166;10.322;2023-05-02T00:10:27;4.05;;;2.00;;
26864;SDS011;40618;51.166;10.322;2023-05-02T00:12:52;2.40;;;1.80;;
26864;SDS011;40618;51.166;10.322;2023-05-02T00:15:18;6.55;;;3.95;;
26864;SDS011;40618;51.166;10.322;2023-05-02T00:17:44;9.75;;;5.40;;
26864;SDS011;40618;51.166;10.322;2023-05-02T00:20:10;8.68;;;5.35;;
26864;SDS011;40618;51.166;10.322;2023-05-02T00:22:36;6.45;;;4.20;;
26864;SDS011;40618;51.166;10.322;2023-05-02T00:25:02;4.75;;;3.40;;
26864;SDS011;40618;51.166;10.322;2023-05-02T00:27:29;3.42;;;2.75;;
26864;SDS011;40618;51.166;10.322;2023-05-02T00:29:56;3.22;;;2.35;;
26864;SDS011;40618;51.166;10.322;2023-05-02T00:32:23;5.15;;;2.50;;
26864;SDS011;40618;51.166;10.322;2023-05-02T00:34:49;7.13;;;3.75;;
26864;SDS011;40618;51.166;10.322;2023-05-02T00:37:14;5.30;;;2.75;;
26864;SDS011;40618;51.166;10.322;2023-05-02T00:39:40;3.90;;;2.40;;
26864;SDS011;40618;51.166;10.322;2023-05-02T00:42:06;4.60;;;2.50;;
26864;SDS011;40618;51.166;10.322;2023-05-02T00:44:31;3.15;;;2.08;;
26864;SDS011;40618;51.166;10.322;2023-05-02T00:46:57;2.25;;;2.03;;
26864;SDS011;40618;51.166;10.322;2023-05-02T00:49:25;3.28;;;2.20;;
26864;SDS011;40618;51.166;10.322;2023-05-02T00:51:52;3.40;;;2.28;;
26864;SDS011;40618;51.166;10.322;2023-05-02T00:54:19;4.10;;;2.47;;
26864;SDS011;40618;51.166;10.322;2023-05-02T00:56:44;3.30;;;2.40;;
26864;SDS011;40618;51.166;10.322;2023-05-02T00:59:11;3.35;;;2.78;;
26864;SDS011;40618;51.166;10.322;2023-05-02T01:07:16;4.82;;;2.75;;
26864;SDS011;40618;51.166;10.322;2023-05-02T01:15:34;8.23;;;5.15;;
26864;SDS011;40618;51.166;10.322;2023-05-02T01:18:03;4.97;;;3.40;;
26864;SDS011;40618;51.166;10.322;2023-05-02T01:20:35;3.95;;;2.67;;
26864;SDS011;40618;51.166;10.322;2023-05-02T01:23:11;2.92;;;2.10;;
26864;SDS011;40618;51.166;10.322;2023-05-02T01:28:54;4.75;;;3.67;;
26864;SDS011;40618;51.166;10.322;2023-05-02T01:31:32;5.20;;;3.67;;
26864;SDS011;40618;51.166;10.322;2023-05-02T01:34:03;5.78;;;3.35;;
26864;SDS011;40618;51.166;10.322;2023-05-02T01:36:34;3.72;;;3.10;;
26864;SDS011;40618;51.166;10.322;2023-05-02T01:39:02;2.58;;;2.25;;
26864;SDS011;40618;51.166;10.322;2023-05-02T01:41:31;3.08;;;2.78;;
26864;SDS011;40618;51.166;10.322;2023-05-02T01:44:00;3.90;;;2.42;;
26864;SDS011;40618;51.166;10.322;2023-05-02T01:46:31;6.22;;;4.20;;
26864;SDS011;40618;51.166;10.322;2023-05-02T01:49:02;4.97;;;3.30;;
26864;SDS011;40618;51.166;10.322;2023-05-02T01:51:32;6.75;;;4.40;;
26864;SDS011;40618;51.166;10.322;2023-05-02T01:54:01;6.00;;;4.60;;
26864;SDS011;40618;51.166;10.322;2023-05-02T01:56:31;4.07;;;3.58;;
26864;SDS011;40618;51.166;10.322;2023-05-02T01:59:01;3.17;;;2.45;;
26864;SDS011;40618;51.166;10.322;2023-05-02T02:01:30;3.23;;;2.43;;
26864;SDS011;40618;51.166;10.322;2023-05-02T02:03:59;2.80;;;2.30;;
26864;SDS011;40618;51.166;10.322;2023-05-02T02:06:26;2.80;;;2.33;;
26864;SDS011;40618;51.166;10.322;2023-05-02T02:08:52;3.70;;;2.33;;
26864;SDS011;40618;51.166;10.322;2023-05-02T02:11:24;2.45;;;2.08;;
26864;SDS011;40618;51.166;10.322;2023-05-02T02:14:05;4.30;;;2.35;;
26864;SDS011;40618;51.166;10.322;2023-05-02T02:16:38;3.00;;;2.08;;
26864;SDS011;40618;51.166;10.322;2023-05-02T02:19:08;2.55;;;2.13;;
26864;SDS011;40618;51.166;10.322;2023-05-02T02:21:37;3.17;;;2.08;;
26864;SDS011;40618;51.166;10.322;2023-05-02T02:24:06;3.00;;;2.10;;
26864;SDS011;40618;51.166;10.322;2023-05-02T02:26:34;4.68;;;2.20;;
26864;SDS011;40618;51.166;10.322;2023-05-02T02:29:01;2.70;;;1.90;;
26864;SDS011;40618;51.166;10.322;2023-05-02T02:31:34;2.63;;;2.10;;
26864;SDS011;40618;51.166;10.322;2023-05-02T02:34:03;2.72;;;2.30;;
26864;SDS011;40618;51.166;10.322;2023-05-02T02:42:28;1.92;;;1.80;;
26864;SDS011;40618;51.166;10.322;2023-05-02T02:45:29;3.30;;;2.40;;
26864;SDS011;40618;51.166;10.322;2023-05-02T02:53:39;2.30;;;1.98;;
26864;SDS011;40618;51.166;10.322;2023-05-02T02:56:27;3.38;;;2.13;;
26864;SDS011;40618;51.166;10.322;2023-05-02T02:59:13;3.80;;;1.95;;
26864;SDS011;40618;51.166;10.322;2023-05-02T03:01:48;3.65;;;2.15;;
26864;SDS011;40618;51.166;10.322;2023-05-02T03:04:28;2.63;;;1.92;;
26864;SDS011;40618;51.166;10.322;2023-05-02T03:06:56;2.38;;;2.17;;
26864;SDS011;40618;51.166;10.322;2023-05-02T03:09:23;2.38;;;2.15;;
26864;SDS011;40618;51.166;10.322;2023-05-02T03:11:51;3.38;;;2.20;;
26864;SDS011;40618;51.166;10.322;2023-05-02T03:14:16;3.20;;;2.35;;
26864;SDS011;40618;51.166;10.322;2023-05-02T03:16:42;2.63;;;2.13;;
26864;SDS011;40618;51.166;10.322;2023-05-02T03:19:08;2.88;;;2.28;;
26864;SDS011;40618;51.166;10.322;2023-05-02T03:21:33;4.07;;;2.20;;
26864;SDS011;40618;51.166;10.322;2023-05-02T03:24:00;2.60;;;2.38;;
26864;SDS011;40618;51.166;10.322;2023-05-02T03:26:28;3.28;;;2.40;;
26864;SDS011;40618;51.166;10.322;2023-05-02T03:28:54;3.35;;;2.40;;
26864;SDS011;40618;51.166;10.322;2023-05-02T03:31:21;5.13;;;2.70;;
26864;SDS011;40618;51.166;10.322;2023-05-02T03:33:47;3.92;;;2.42;;
26864;SDS011;40618;51.166;10.322;2023-05-02T03:36:13;6.60;;;2.45;;
26864;SDS011;40618;51.166;10.322;2023-05-02T03:38:40;5.25;;;2.47;;
26864;SDS011;40618;51.166;10.322;2023-05-02T03:41:06;5.45;;;4.03;;
26864;SDS011;40618;51.166;10.322;2023-05-02T03:43:31;7.47;;;5.88;;
26864;SDS011;40618;51.166;10.322;2023-05-02T03:46:02;8.00;;;6.30;;
26864;SDS011;40618;51.166;10.322;2023-05-02T03:48:31;8.98;;;5.82;;
26864;SDS011;40618;51.166;10.322;2023-05-02T03:50:58;6.38;;;4.93;;
26864;SDS011;40618;51.166;10.322;2023-05-02T03:53:24;6.95;;;3.50;;
26864;SDS011;40618;51.166;10.322;2023-05-02T03:55:50;4.60;;;2.78;;
26864;SDS011;40618;51.166;10.322;2023-05-02T03:58:15;3.75;;;2.83;;
26864;SDS011;40618;51.166;10.322;2023-05-02T04:00:41;2.60;;;2.30;;
26864;SDS011;40618;51.166;10.322;2023-05-02T04:03:07;4.22;;;2.42;;
26864;SDS011;40618;51.166;10.322;2023-05-02T04:05:32;4.97;;;2.22;;
26864;SDS011;40618;51.166;10.322;2023-05-02T04:07:58;2.83;;;2.42;;
26864;SDS011;40618;51.166;10.322;2023-05-02T04:10:24;3.05;;;2.28;;
26864;SDS011;40618;51.166;10.322;2023-05-02T04:12:50;2.85;;;2.20;;
26864;SDS011;40618;51.166;10.322;2023-05-02T04:15:16;4.18;;;2.75;;
26864;SDS011;40618;51.166;10.322;2023-05-02T04:17:41;4.03;;;3.00;;
26864;SDS011;40618;51.166;10.322;2023-05-02T04:20:07;4.95;;;3.13;;
26864;SDS011;40618;51.166;10.322;2023-05-02T04:22:33;4.85;;;3.00;;
26864;SDS011;40618;51.166;10.322;2023-05-02T04:24:59;6.65;;;2.92;;
26864;SDS011;40618;51.166;10.322;2023-05-02T04:27:25;6.13;;;3.33;;
26864;SDS011;40618;51.166;10.322;2023-05-02T04:29:51;5.82;;;3.30;;
26864;SDS011;40618;51.166;10.322;2023-05-02T04:32:17;7.47;;;3.90;;
26864;SDS011;40618;51.166;10.322;2023-05-02T04:34:43;6.63;;;3.70;;
26864;SDS011;40618;51.166;10.322;2023-05-02T04:37:09;5.25;;;3.58;;
26864;SDS011;40618;51.166;10.322;2023-05-02T04:39:35;5.38;;;3.45;;
26864;SDS011;40618;51.166;10.322;2023-05-02T04:42:09;8.27;;;3.50;;
26864;SDS011;40618;51.166;10.322;2023-05-02T04:44:35;8.07;;;3.13;;
26864;SDS011;40618;51.166;10.322;2023-05-02T04:47:00;3.85;;;2.92;;
26864;SDS011;40618;51.166;10.322;2023-05-02T04:49:26;5.88;;;2.88;;
26864;SDS011;40618;51.166;10.322;2023-05-02T04:51:52;6.00;;;3.33;;
26864;SDS011;40618;51.166;10.322;2023-05-02T04:54:17;4.22;;;2.90;;
26864;SDS011;40618;51.166;10.322;2023-05-02T04:56:43;3.42;;;2.60;;
26864;SDS011;40618;51.166;10.322;2023-05-02T04:59:08;3.45;;;2.88;;
26864;SDS011;40618;51.166;10.322;2023-05-02T05:01:34;3.67;;;2.78;;
26864;SDS011;40618;51.166;10.322;2023-05-02T05:04:00;6.25;;;3.50;;
26864;SDS011;40618;51.166;10.322;2023-05-02T05:06:26;4.95;;;3.33;;
26864;SDS011;40618;51.166;10.322;2023-05-02T05:08:51;4.15;;;3.28;;
26864;SDS011;40618;51.166;10.322;2023-05-02T05:11:17;4.50;;;2.85;;
26864;SDS011;40618;51.166;10.322;2023-05-02T05:13:43;3.85;;;2.97;;
26864;SDS011;40618;51.166;10.322;2023-05-02T05:16:08;3.88;;;2.88;;
26864;SDS011;40618;51.166;10.322;2023-05-02T05:18:34;7.25;;;3.22;;
26864;SDS011;40618;51.166;10.322;2023-05-02T05:21:06;4.65;;;3.63;;
26864;SDS011;40618;51.166;10.322;2023-05-02T05:23:32;4.78;;;3.45;;
26864;SDS011;40618;51.166;10.322;2023-05-02T05:26:12;4.75;;;3.83;;
26864;SDS011;40618;51.166;10.322;2023-05-02T05:28:40;5.50;;;3.75;;
26864;SDS011;40618;51.166;10.322;2023-05-02T05:31:07;4.75;;;4.07;;
26864;SDS011;40618;51.166;10.322;2023-05-02T05:33:38;8.60;;;3.72;;
26864;SDS011;40618;51.166;10.322;2023-05-02T05:36:04;4.18;;;3.47;;
26864;SDS011;40618;51.166;10.322;2023-05-02T05:38:35;5.25;;;3.72;;
26864;SDS011;40618;51.166;10.322;2023-05-02T05:41:01;4.22;;;3.50;;
26864;SDS011;40618;51.166;10.322;2023-05-02T05:43:27;5.55;;;3.60;;
26864;SDS011;40618;51.166;10.322;2023-05-02T05:45:54;5.60;;;3.83;;
26864;SDS011;40618;51.166;10.322;2023-05-02T05:48:20;5.78;;;3.85;;
26864;SDS011;40618;51.166;10.322;2023-05-02T05:50:46;3.97;;;3.58;;
26864;SDS011;40618;51.166;10.322;2023-05-02T05:53:12;4.45;;;3.55;;
26864;SDS011;40618;51.166;10.322;2023-05-02T05:55:38;4.00;;;3.50;;
26864;SDS011;40618;51.166;10.322;2023-05-02T05:58:06;5.03;;;4.18;;
26864;SDS011;40618;51.166;10.322;2023-05-02T06:00:35;5.45;;;4.35;;
26864;SDS011;40618;51.166;10.322;2023-05-02T06:03:02;4.95;;;4.07;;
26864;SDS011;40618;51.166;10.322;2023-05-02T06:05:28;5.00;;;4.28;;
26864;SDS011;40618;51.166;10.322;2023-05-02T06:07:55;6.55;;;4.80;;
26864;SDS011;40618;51.166;10.322;2023-05-02T06:10:21;6.60;;;4.47;;
26864;SDS011;40618;51.166;10.322;2023-05-02T06:12:47;9.32;;;4.57;;
26864;SDS011;40618;51.166;10.322;2023-05-02T06:15:13;5.95;;;4.72;;
26864;SDS011;40618;51.166;10.322;2023-05-02T06:17:38;6.60;;;5.35;;
26864;SDS011;40618;51.166;10.322;2023-05-02T06:20:04;9.10;;;5.70;;
26864;SDS011;40618;51.166;10.322;2023-05-02T06:22:31;7.70;;;5.97;;
26864;SDS011;40618;51.166;10.322;2023-05-02T06:24:56;9.10;;;5.78;;
26864;SDS011;40618;51.166;10.322;2023-05-02T06:27:22;7.85;;;6.25;;
26864;SDS011;40618;51.166;10.322;2023-05-02T06:29:50;12.40;;;7.05;;
26864;SDS011;40618;51.166;10.322;2023-05-02T06:32:17;9.82;;;6.57;;
26864;SDS011;40618;51.166;10.322;2023-05-02T06:34:42;7.78;;;6.32;;
26864;SDS011;40618;51.166;10.322;2023-05-02T06:37:08;11.52;;;7.78;;
26864;SDS011;40618;51.166;10.322;2023-05-02T06:39:34;10.48;;;7.47;;
26864;SDS011;40618;51.166;10.322;2023-05-02T06:42:00;11.15;;;8.13;;
26864;SDS011;40618;51.166;10.322;2023-05-02T06:44:26;9.50;;;7.95;;
26864;SDS011;40618;51.166;10.322;2023-05-02T06:46:52;11.85;;;8.00;;
26864;SDS011;40618;51.166;10.322;2023-05-02T06:49:17;12.63;;;8.30;;
26864;SDS011;40618;51.166;10.322;2023-05-02T06:51:43;11.70;;;9.02;;
26864;SDS011;40618;51.166;10.322;2023-05-02T06:54:08;11.10;;;8.60;;
26864;SDS011;40618;51.166;10.322;2023-05-02T06:56:34;12.13;;;8.32;;
26864;SDS011;40618;51.166;10.322;2023-05-02T06:59:00;11.43;;;7.65;;
26864;SDS011;40618;51.166;10.322;2023-05-02T07:01:26;13.05;;;9.38;;
26864;SDS011;40618;51.166;10.322;2023-05-02T07:03:52;14.57;;;10.00;;
26864;SDS011;40618;51.166;10.322;2023-05-02T07:06:18;14.02;;;9.40;;
26864;SDS011;40618;51.166;10.322;2023-05-02T07:08:44;15.85;;;10.75;;
26864;SDS011;40618;51.166;10.322;2023-05-02T07:11:10;15.80;;;10.90;;
26864;SDS011;40618;51.166;10.322;2023-05-02T07:13:35;17.10;;;11.38;;
26864;SDS011;40618;51.166;10.322;2023-05-02T07:16:01;15.77;;;10.30;;
26864;SDS011;40618;51.166;10.322;2023-05-02T07:18:26;11.98;;;9.07;;
26864;SDS011;40618;51.166;10.322;2023-05-02T07:20:52;13.38;;;9.80;;
26864;SDS011;40618;51.166;10.322;2023-05-02T07:23:18;14.98;;;10.75;;
26864;SDS011;40618;51.166;10.322;2023-05-02T07:25:44;29.52;;;17.10;;
26864;SDS011;40618;51.166;10.322;2023-05-02T07:28:12;14.63;;;10.93;;
26864;SDS011;40618;51.166;10.322;2023-05-02T07:30:38;19.17;;;12.50;;
26864;SDS011;40618;51.166;10.322;2023-05-02T07:33:03;19.63;;;11.48;;
26864;SDS011;40618;51.166;10.322;2023-05-02T07:35:29;18.20;;;12.23;;
26864;SDS011;40618;51.166;10.322;2023-05-02T07:37:54;13.23;;;9.55;;
26864;SDS011;40618;51.166;10.322;2023-05-02T07:40:21;13.38;;;9.90;;
26864;SDS011;40618;51.166;10.322;2023-05-02T07:42:47;15.25;;;10.30;;
26864;SDS011;40618;51.166;10.322;2023-05-02T07:45:14;13.98;;;9.15;;
26864;SDS011;40618;51.166;10.322;2023-05-02T07:47:40;16.98;;;11.48;;
26864;SDS011;40618;51.166;10.322;2023-05-02T07:50:06;14.55;;;9.63;;
26864;SDS011;40618;51.166;10.322;2023-05-02T07:52:33;15.77;;;10.30;;
26864;SDS011;40618;51.166;10.322;2023-05-02T07:54:59;13.77;;;9.43;;
26864;SDS011;40618;51.166;10.322;2023-05-02T07:57:25;18.33;;;11.60;;
26864;SDS011;40618;51.166;10.322;2023-05-02T07:59:51;23.25;;;12.85;;
26864;SDS011;40618;51.166;10.322;2023-05-02T08:02:16;19.83;;;12.15;;
26864;SDS011;40618;51.166;10.322;2023-05-02T08:04:44;19.58;;;12.35;;
26864;SDS011;40618;51.166;10.322;2023-05-02T08:07:11;18.13;;;11.73;;
26864;SDS011;40618;51.166;10.322;2023-05-02T08:09:37;17.88;;;11.80;;
26864;SDS011;40618;51.166;10.322;2023-05-02T08:12:02;20.65;;;12.80;;
26864;SDS011;40618;51.166;10.322;2023-05-02T08:14:29;18.02;;;11.70;;
26864;SDS011;40618;51.166;10.322;2023-05-02T08:16:55;15.70;;;10.48;;
26864;SDS011;40618;51.166;10.322;2023-05-02T08:19:21;16.30;;;10.90;;
26864;SDS011;40618;51.166;10.322;2023-05-02T08:21:47;13.43;;;9.25;;
26864;SDS011;40618;51.166;10.322;2023-05-02T08:24:13;13.63;;;9.73;;
26864;SDS011;40618;51.166;10.322;2023-05-02T08:26:38;13.25;;;9.63;;
26864;SDS011;40618;51.166;10.322;2023-05-02T08:29:04;13.27;;;9.73;;
26864;SDS011;40618;51.166;10.322;2023-05-02T08:31:30;16.88;;;9.95;;
26864;SDS011;40618;51.166;10.322;2023-05-02T08:33:55;11.27;;;8.80;;
26864;SDS011;40618;51.166;10.322;2023-05-02T08:36:21;13.15;;;10.02;;
26864;SDS011;40618;51.166;10.322;2023-05-02T08:38:46;12.68;;;9.27;;
26864;SDS011;40618;51.166;10.322;2023-05-02T08:41:16;13.55;;;8.55;;
26864;SDS011;40618;51.166;10.322;2023-05-02T08:43:43;19.80;;;11.93;;
26864;SDS011;40618;51.166;10.322;2023-05-02T08:46:11;16.10;;;10.77;;
26864;SDS011;40618;51.166;10.322;2023-05-02T08:48:41;20.20;;;10.65;;
26864;SDS011;40618;51.166;10.322;2023-05-02T08:51:13;12.25;;;7.97;;
26864;SDS011;40618;51.166;10.322;2023-05-02T08:53:41;9.20;;;6.90;;
26864;SDS011;40618;51.166;10.322;2023-05-02T08:56:07;12.60;;;6.00;;
26864;SDS011;40618;51.166;10.322;2023-05-02T08:58:36;6.80;;;5.20;;
26864;SDS011;40618;51.166;10.322;2023-05-02T09:01:17;7.20;;;5.45;;
26864;SDS011;40618;51.166;10.322;2023-05-02T09:03:52;9.88;;;5.65;;
26864;SDS011;40618;51.166;10.322;2023-05-02T09:06:20;7.65;;;5.22;;
26864;SDS011;40618;51.166;10.322;2023-05-02T09:08:48;6.20;;;4.80;;
26864;SDS011;40618;51.166;10.322;2023-05-02T09:11:17;7.93;;;4.88;;
26864;SDS011;40618;51.166;10.322;2023-05-02T09:13:47;9.60;;;6.07;;
26864;SDS011;40618;51.166;10.322;2023-05-02T09:16:16;6.28;;;4.22;;
26864;SDS011;40618;51.166;10.322;2023-05-02T09:18:47;6.35;;;4.43;;
26864;SDS011;40618;51.166;10.322;2023-05-02T09:21:22;6.70;;;4.28;;
26864;SDS011;40618;51.166;10.322;2023-05-02T09:24:16;5.88;;;3.17;;
26864;SDS011;40618;51.166;10.322;2023-05-02T09:27:17;8.27;;;3.00;;
26864;SDS011;40618;51.166;10.322;2023-05-02T09:29:37;4.13;;;3.20;;
26864;SDS011;40618;51.166;10.322;2023-05-02T09:32:04;3.42;;;2.60;;
26864;SDS011;40618;51.166;10.322;2023-05-02T09:34:30;3.83;;;2.80;;
26864;SDS011;40618;51.166;10.322;2023-05-02T09:36:57;3.85;;;3.05;;
26864;SDS011;40618;51.166;10.322;2023-05-02T09:39:24;3.90;;;3.28;;
26864;SDS011;40618;51.166;10.322;2023-05-02T09:41:55;4.38;;;3.30;;
26864;SDS011;40618;51.166;10.322;2023-05-02T09:44:23;4.97;;;3.47;;
26864;SDS011;40618;51.166;10.322;2023-05-02T09:46:54;5.57;;;3.80;;
26864;SDS011;40618;51.166;10.322;2023-05-02T09:49:42;4.68;;;3.78;;
26864;SDS011;40618;51.166;10.322;2023-05-02T09:52:16;3.92;;;2.47;;
26864;SDS011;40618;51.166;10.322;2023-05-02T09:54:45;4.22;;;3.03;;
26864;SDS011;40618;51.166;10.322;2023-05-02T09:57:14;3.08;;;2.47;;
26864;SDS011;40618;51.166;10.322;2023-05-02T09:59:40;3.05;;;1.90;;
26864;SDS011;40618;51.166;10.322;2023-05-02T10:02:16;2.40;;;1.63;;
26864;SDS011;40618;51.166;10.322;2023-05-02T10:04:42;2.67;;;1.70;;
26864;SDS011;40618;51.166;10.322;2023-05-02T10:07:11;2.35;;;2.08;;
26864;SDS011;40618;51.166;10.322;2023-05-02T10:09:40;2.28;;;1.75;;
26864;SDS011;40618;51.166;10.322;2023-05-02T10:12:14;2.30;;;1.88;;
26864;SDS011;40618;51.166;10.322;2023-05-02T10:14:41;1.75;;;1.60;;
26864;SDS011;40618;51.166;10.322;2023-05-02T10:17:17;1.95;;;1.58;;
26864;SDS011;40618;51.166;10.322;2023-05-02T10:20:06;1.70;;;1.30;;
26864;SDS011;40618;51.166;10.322;2023-05-02T10:22:33;2.25;;;1.50;;
26864;SDS011;40618;51.166;10.322;2023-05-02T10:25:01;2.53;;;1.75;;
26864;SDS011;40618;51.166;10.322;2023-05-02T10:27:31;4.57;;;1.38;;
26864;SDS011;40618;51.166;10.322;2023-05-02T10:29:57;3.00;;;1.95;;
26864;SDS011;40618;51.166;10.322;2023-05-02T10:32:28;1.65;;;1.23;;
26864;SDS011;40618;51.166;10.322;2023-05-02T10:34:55;1.15;;;1.00;;
26864;SDS011;40618;51.166;10.322;2023-05-02T10:37:24;1.23;;;1.13;;
26864;SDS011;40618;51.166;10.322;2023-05-02T10:42:18;0.90;;;0.75;;
26864;SDS011;40618;51.166;10.322;2023-05-02T10:44:44;0.50;;;0.50;;
26864;SDS011;40618;51.166;10.322;2023-05-02T10:47:21;0.45;;;0.45;;
26864;SDS011;40618;51.166;10.322;2023-05-02T10:49:49;0.95;;;0.55;;
26864;SDS011;40618;51.166;10.322;2023-05-02T11:00:21;0.68;;;0.68;;
26864;SDS011;40618;51.166;10.322;2023-05-02T11:02:55;1.45;;;0.80;;
26864;SDS011;40618;51.166;10.322;2023-05-02T11:05:21;0.60;;;0.50;;
26864;SDS011;40618;51.166;10.322;2023-05-02T11:07:48;0.43;;;0.43;;
26864;SDS011;40618;51.166;10.322;2023-05-02T11:12:46;0.98;;;0.60;;
26864;SDS011;40618;51.166;10.322;2023-05-02T11:20:33;0.50;;;0.50;;
26864;SDS011;40618;51.166;10.322;2023-05-02T11:25:41;0.82;;;0.82;;
26864;SDS011;40618;51.166;10.322;2023-05-02T11:30:58;0.73;;;0.50;;
26864;SDS011;40618;51.166;10.322;2023-05-02T11:33:25;1.33;;;0.90;;
26864;SDS011;40618;51.166;10.322;2023-05-02T11:35:52;1.23;;;1.13;;
26864;SDS011;40618;51.166;10.322;2023-05-02T11:38:20;2.08;;;1.35;;
26864;SDS011;40618;51.166;10.322;2023-05-02T11:40:50;1.65;;;1.55;;
26864;SDS011;40618;51.166;10.322;2023-05-02T11:43:21;1.70;;;1.58;;
26864;SDS011;40618;51.166;10.322;2023-05-02T11:45:49;1.52;;;1.42;;
26864;SDS011;40618;51.166;10.322;2023-05-02T11:48:16;1.50;;;1.40;;
26864;SDS011;40618;51.166;10.322;2023-05-02T11:50:54;1.73;;;1.48;;
26864;SDS011;40618;51.166;10.322;2023-05-02T11:53:26;2.78;;;2.45;;
26864;SDS011;40618;51.166;10.322;2023-05-02T11:55:56;8.80;;;2.20;;
26864;SDS011;40618;51.166;10.322;2023-05-02T11:58:26;4.00;;;3.65;;
26864;SDS011;40618;51.166;10.322;2023-05-02T12:00:56;2.22;;;2.00;;
26864;SDS011;40618;51.166;10.322;2023-05-02T12:03:29;2.17;;;1.73;;
26864;SDS011;40618;51.166;10.322;2023-05-02T12:06:07;2.17;;;1.90;;
26864;SDS011;40618;51.166;10.322;2023-05-02T12:08:39;2.72;;;1.60;;
26864;SDS011;40618;51.166;10.322;2023-05-02T12:11:08;1.63;;;1.48;;
26864;SDS011;40618;51.166;10.322;2023-05-02T12:13:43;2.58;;;1.95;;
26864;SDS011;40618;51.166;10.322;2023-05-02T12:16:13;2.17;;;1.98;;
26864;SDS011;40618;51.166;10.322;2023-05-02T12:18:40;2.95;;;1.67;;
26864;SDS011;40618;51.166;10.322;2023-05-02T12:21:07;3.75;;;1.92;;
26864;SDS011;40618;51.166;10.322;2023-05-02T12:23:33;2.88;;;2.08;;
26864;SDS011;40618;51.166;10.322;2023-05-02T12:26:00;5.15;;;1.98;;
26864;SDS011;40618;51.166;10.322;2023-05-02T12:28:51;3.78;;;1.98;;
26864;SDS011;40618;51.166;10.322;2023-05-02T12:31:18;2.38;;;1.95;;
26864;SDS011;40618;51.166;10.322;2023-05-02T12:33:45;2.50;;;1.83;;
26864;SDS011;40618;51.166;10.322;2023-05-02T12:36:16;2.83;;;2.25;;
26864;SDS011;40618;51.166;10.322;2023-05-02T12:38:56;3.47;;;2.20;;
26864;SDS011;40618;51.166;10.322;2023-05-02T12:41:30;1.65;;;1.55;;
26864;SDS011;40618;51.166;10.322;2023-05-02T12:43:57;2.38;;;1.77;;
26864;SDS011;40618;51.166;10.322;2023-05-02T12:46:24;1.73;;;1.60;;
26864;SDS011;40618;51.166;10.322;2023-05-02T12:51:36;2.20;;;2.00;;
26864;SDS011;40618;51.166;10.322;2023-05-02T12:54:03;3.17;;;1.63;;
26864;SDS011;40618;51.166;10.322;2023-05-02T12:56:29;2.97;;;1.88;;
26864;SDS011;40618;51.166;10.322;2023-05-02T12:59:03;2.88;;;1.70;;
26864;SDS011;40618;51.166;10.322;2023-05-02T13:01:30;3.00;;;1.98;;
26864;SDS011;40618;51.166;10.322;2023-05-02T13:03:57;2.60;;;2.20;;
26864;SDS011;40618;51.166;10.322;2023-05-02T13:06:23;4.97;;;2.60;;
26864;SDS011;40618;51.166;10.322;2023-05-02T13:08:48;4.90;;;2.05;;
26864;SDS011;40618;51.166;10.322;2023-05-02T13:11:14;3.13;;;1.92;;
26864;SDS011;40618;51.166;10.322;2023-05-02T13:13:40;2.05;;;1.88;;
26864;SDS011;40618;51.166;10.322;2023-05-02T13:16:05;2.10;;;1.90;;
26864;SDS011;40618;51.166;10.322;2023-05-02T13:18:32;3.08;;;1.75;;
26864;SDS011;40618;51.166;10.322;2023-05-02T13:20:57;2.17;;;1.98;;
26864;SDS011;40618;51.166;10.322;2023-05-02T13:23:23;2.25;;;1.73;;
26864;SDS011;40618;51.166;10.322;2023-05-02T13:25:48;2.33;;;2.00;;
26864;SDS011;40618;51.166;10.322;2023-05-02T13:28:14;3.53;;;2.53;;
26864;SDS011;40618;51.166;10.322;2023-05-02T13:30:40;3.28;;;2.72;;
26864;SDS011;40618;51.166;10.322;2023-05-02T13:33:05;3.45;;;2.65;;
26864;SDS011;40618;51.166;10.322;2023-05-02T13:35:31;2.90;;;2.58;;
26864;SDS011;40618;51.166;10.322;2023-05-02T13:37:57;3.80;;;2.30;;
26864;SDS011;40618;51.166;10.322;2023-05-02T13:40:22;5.75;;;2.58;;
26864;SDS011;40618;51.166;10.322;2023-05-02T13:42:48;5.53;;;2.45;;
26864;SDS011;40618;51.166;10.322;2023-05-02T13:45:13;5.30;;;2.75;;
26864;SDS011;40618;51.166;10.322;2023-05-02T13:47:41;3.28;;;2.13;;
26864;SDS011;40618;51.166;10.322;2023-05-02T13:50:06;3.17;;;2.17;;
26864;SDS011;40618;51.166;10.322;2023-05-02T13:52:32;4.88;;;2.75;;
26864;SDS011;40618;51.166;10.322;2023-05-02T13:54:58;4.57;;;2.70;;
26864;SDS011;40618;51.166;10.322;2023-05-02T13:57:24;4.53;;;2.40;;
26864;SDS011;40618;51.166;10.322;2023-05-02T13:59:49;5.25;;;2.92;;
26864;SDS011;40618;51.166;10.322;2023-05-02T14:02:16;7.03;;;3.78;;
26864;SDS011;40618;51.166;10.322;2023-05-02T14:04:41;11.80;;;3.40;;
26864;SDS011;40618;51.166;10.322;2023-05-02T14:07:07;5.15;;;3.45;;
26864;SDS011;40618;51.166;10.322;2023-05-02T14:09:33;7.53;;;3.70;;
26864;SDS011;40618;51.166;10.322;2023-05-02T14:11:58;7.45;;;3.20;;
26864;SDS011;40618;51.166;10.322;2023-05-02T14:14:24;7.00;;;3.47;;
26864;SDS011;40618;51.166;10.322;2023-05-02T14:16:49;6.57;;;3.88;;
26864;SDS011;40618;51.166;10.322;2023-05-02T14:19:15;7.28;;;3.45;;
26864;SDS011;40618;51.166;10.322;2023-05-02T14:21:41;7.07;;;3.60;;
26864;SDS011;40618;51.166;10.322;2023-05-02T14:24:06;7.93;;;3.50;;
26864;SDS011;40618;51.166;10.322;2023-05-02T14:26:32;7.03;;;3.90;;
26864;SDS011;40618;51.166;10.322;2023-05-02T14:28:58;8.45;;;3.90;;
26864;SDS011;40618;51.166;10.322;2023-05-02T14:31:24;8.98;;;4.03;;
26864;SDS011;40618;51.166;10.322;2023-05-02T14:33:50;7.78;;;3.78;;
26864;SDS011;40618;51.166;10.322;2023-05-02T14:36:15;10.48;;;4.45;;
26864;SDS011;40618;51.166;10.322;2023-05-02T14:38:41;16.83;;;4.70;;
26864;SDS011;40618;51.166;10.322;2023-05-02T14:41:06;10.23;;;4.43;;
26864;SDS011;40618;51.166;10.322;2023-05-02T14:43:32;12.25;;;4.25;;
26864;SDS011;40618;51.166;10.322;2023-05-02T14:45:58;14.63;;;4.80;;
26864;SDS011;40618;51.166;10.322;2023-05-02T14:48:23;9.93;;;4.53;;
26864;SDS011;40618;51.166;10.322;2023-05-02T14:50:49;6.63;;;3.42;;
26864;SDS011;40618;51.166;10.322;2023-05-02T14:53:15;11.70;;;4.20;;
26864;SDS011;40618;51.166;10.322;2023-05-02T14:55:41;11.02;;;3.42;;
26864;SDS011;40618;51.166;10.322;2023-05-02T14:58:07;7.65;;;4.00;;
26864;SDS011;40618;51.166;10.322;2023-05-02T15:00:34;6.60;;;3.63;;
26864;SDS011;40618;51.166;10.322;2023-05-02T15:03:04;7.97;;;2.97;;
26864;SDS011;40618;51.166;10.322;2023-05-02T15:05:31;6.50;;;3.20;;
26864;SDS011;40618;51.166;10.322;2023-05-02T15:07:57;5.22;;;2.80;;
26864;SDS011;40618;51.166;10.322;2023-05-02T15:10:23;7.22;;;3.03;;
26864;SDS011;40618;51.166;10.322;2023-05-02T15:12:49;11.00;;;3.60;;
26864;SDS011;40618;51.166;10.322;2023-05-02T15:15:18;9.30;;;3.97;;
26864;SDS011;40618;51.166;10.322;2023-05-02T15:17:48;7.97;;;3.70;;
26864;SDS011;40618;51.166;10.322;2023-05-02T15:20:15;11.50;;;4.20;;
26864;SDS011;40618;51.166;10.322;2023-05-02T15:22:40;6.80;;;4.10;;
26864;SDS011;40618;51.166;10.322;2023-05-02T15:25:06;8.38;;;3.35;;
26864;SDS011;40618;51.166;10.322;2023-05-02T15:27:32;12.00;;;3.75;;